createdAt,value
2023-05-19T00:02:27.420Z,8.09
2023-05-19T00:05:15.053Z,8.04
2023-05-19T00:07:51.178Z,7.98
2023-05-19T00:10:40.024Z,7.91
2023-05-19T00:13:14.129Z,7.84
2023-05-19T00:16:02.136Z,7.78
2023-05-19T00:18:35.136Z,7.74
2023-05-19T00:21:23.094Z,7.72
2023-05-19T00:23:57.092Z,7.71
2023-05-19T00:26:43.972Z,7.69
2023-05-19T00:29:18.785Z,7.66
2023-05-19T00:32:05.986Z,7.61
2023-05-19T00:34:40.058Z,7.56
2023-05-19T00:37:26.961Z,7.50
2023-05-19T00:40:00.016Z,7.44
2023-05-19T00:42:48.326Z,7.37
2023-05-19T00:45:22.064Z,7.32
2023-05-19T00:48:08.987Z,7.29
2023-05-19T00:50:43.049Z,7.28
2023-05-19T00:53:30.910Z,7.26
2023-05-19T00:56:05.058Z,7.23
2023-05-19T00:58:52.027Z,7.19
2023-05-19T01:01:27.085Z,7.14
2023-05-19T01:04:23.894Z,7.09
2023-05-19T01:07:17.865Z,7.02
2023-05-19T01:10:04.942Z,6.94
2023-05-19T01:12:38.024Z,6.90
2023-05-19T01:15:24.879Z,6.88
2023-05-19T01:18:13.121Z,6.88
2023-05-19T01:21:11.895Z,6.87
2023-05-19T01:23:58.050Z,6.83
2023-05-19T01:27:33.093Z,6.79
2023-05-19T01:30:32.301Z,6.73
2023-05-19T01:33:22.861Z,6.70
2023-05-19T01:36:03.986Z,6.69
2023-05-19T01:38:45.828Z,6.67
2023-05-19T01:41:29.720Z,6.65
2023-05-19T01:44:10.684Z,6.61
2023-05-19T01:46:51.920Z,6.57
2023-05-19T01:49:31.816Z,6.53
2023-05-19T01:52:11.865Z,6.48
2023-05-19T01:54:58.774Z,6.43
2023-05-19T01:58:01.969Z,6.40
2023-05-19T02:00:59.852Z,6.38
2023-05-19T02:03:48.876Z,6.35
2023-05-19T02:06:52.810Z,6.32
2023-05-19T02:09:37.920Z,6.29
2023-05-19T02:12:46.780Z,6.23
2023-05-19T02:15:26.901Z,6.17
2023-05-19T02:18:17.774Z,6.14
2023-05-19T02:20:52.407Z,6.13
2023-05-19T02:23:39.915Z,6.11
2023-05-19T02:26:19.864Z,6.10
2023-05-19T02:28:59.767Z,6.07
2023-05-19T02:31:39.879Z,6.03
2023-05-19T02:34:19.730Z,5.99
2023-05-19T02:36:59.930Z,5.95
2023-05-19T02:39:41.727Z,5.94
2023-05-19T02:42:21.868Z,5.95
2023-05-19T02:45:01.922Z,5.96
2023-05-19T02:47:41.941Z,5.94
2023-05-19T02:50:21.666Z,5.92
2023-05-19T02:53:02.714Z,5.90
2023-05-19T02:55:43.660Z,5.88
2023-05-19T02:58:23.815Z,5.88
2023-05-19T03:01:03.659Z,5.90
2023-05-19T03:03:57.689Z,5.93
2023-05-19T03:06:45.731Z,5.94
2023-05-19T03:09:20.787Z,5.95
2023-05-19T03:12:10.710Z,5.96
2023-05-19T03:14:44.730Z,5.99
2023-05-19T03:17:31.794Z,6.03
2023-05-19T03:20:05.859Z,6.09
2023-05-19T03:22:52.560Z,6.15
2023-05-19T03:25:26.213Z,6.22
2023-05-19T03:28:12.595Z,6.28
2023-05-19T03:30:52.701Z,6.31
2023-05-19T03:33:36.614Z,6.34
2023-05-19T03:36:17.713Z,6.35
2023-05-19T03:38:57.610Z,6.38
2023-05-19T03:41:37.699Z,6.42
2023-05-19T03:44:17.562Z,6.48
2023-05-19T03:46:58.596Z,6.53
2023-05-19T03:50:01.694Z,6.57
2023-05-19T03:53:04.679Z,6.60
2023-05-19T03:55:51.539Z,6.64
2023-05-19T03:58:31.624Z,6.71
2023-05-19T04:01:18.651Z,6.80
2023-05-19T04:03:52.714Z,6.89
2023-05-19T04:06:40.536Z,6.98
2023-05-19T04:09:21.658Z,7.05
2023-05-19T04:12:12.481Z,7.10
2023-05-19T04:14:45.620Z,7.14
2023-05-19T04:17:33.599Z,7.18
2023-05-19T04:20:07.590Z,7.25
2023-05-19T04:22:54.502Z,7.33
2023-05-19T04:25:28.538Z,7.40
2023-05-19T04:28:15.480Z,7.47
2023-05-19T04:30:50.782Z,7.52
2023-05-19T04:33:37.518Z,7.58
2023-05-19T04:36:14.019Z,7.62
2023-05-19T04:39:01.472Z,7.67
2023-05-19T04:41:35.542Z,7.71
2023-05-19T04:44:24.385Z,7.77
2023-05-19T04:46:59.785Z,7.85
2023-05-19T04:49:46.427Z,7.95
2023-05-19T04:52:23.251Z,8.07
2023-05-19T04:55:10.464Z,8.17
2023-05-19T04:57:45.028Z,8.28
2023-05-19T05:00:32.549Z,8.37
2023-05-19T05:03:10.161Z,8.45
2023-05-19T05:05:58.341Z,8.52
2023-05-19T05:08:32.504Z,8.59
2023-05-19T05:11:20.385Z,8.65
2023-05-19T05:13:58.753Z,8.71
2023-05-19T05:16:46.467Z,8.78
2023-05-19T05:19:25.135Z,8.86
2023-05-19T05:22:13.368Z,8.92
2023-05-19T05:24:47.425Z,8.97
2023-05-19T05:27:34.286Z,9.05
2023-05-19T05:30:08.441Z,9.13
2023-05-19T05:32:56.358Z,9.21
2023-05-19T05:35:41.453Z,9.30
2023-05-19T05:38:28.310Z,9.39
2023-05-19T05:41:02.910Z,9.46
2023-05-19T05:43:50.291Z,9.54
2023-05-19T05:46:25.482Z,9.64
2023-05-19T05:49:13.297Z,9.72
2023-05-19T05:52:04.430Z,9.82
2023-05-19T05:54:58.220Z,9.94
2023-05-19T05:57:31.353Z,10.04
2023-05-19T06:00:24.676Z,10.13
2023-05-19T06:02:59.519Z,10.24
2023-05-19T06:05:46.287Z,10.35
2023-05-19T06:08:19.338Z,10.46
2023-05-19T06:11:06.237Z,10.57
2023-05-19T06:13:43.177Z,10.69
2023-05-19T06:16:41.277Z,10.80
2023-05-19T06:19:15.410Z,10.92
2023-05-19T06:22:03.149Z,11.03
2023-05-19T06:24:39.478Z,11.15
2023-05-19T06:27:26.194Z,11.26
2023-05-19T06:30:00.334Z,11.36
2023-05-19T06:32:50.256Z,11.48
2023-05-19T06:35:24.380Z,11.58
2023-05-19T06:38:11.222Z,11.66
2023-05-19T06:40:45.303Z,11.75
2023-05-19T06:43:32.059Z,11.84
2023-05-19T06:46:10.766Z,11.96
2023-05-19T06:48:57.234Z,12.07
2023-05-19T06:51:31.691Z,12.17
2023-05-19T06:54:20.180Z,12.29
2023-05-19T06:56:54.444Z,12.41
2023-05-19T06:59:44.169Z,12.52
2023-05-19T07:02:18.296Z,12.63
2023-05-19T07:05:05.082Z,12.74
2023-05-19T07:07:38.230Z,12.84
2023-05-19T07:10:29.064Z,12.94
2023-05-19T07:13:03.294Z,13.05
2023-05-19T07:15:50.090Z,13.14
2023-05-19T07:18:24.206Z,13.25
2023-05-19T07:21:11.051Z,13.36
2023-05-19T07:23:45.162Z,13.46
2023-05-19T07:26:33.086Z,13.57
2023-05-19T07:29:06.661Z,13.65
2023-05-19T07:31:54.248Z,13.75
2023-05-19T07:34:28.703Z,13.85
2023-05-19T07:37:16.025Z,13.94
2023-05-19T07:39:49.152Z,14.03
2023-05-19T07:42:36.007Z,14.14
2023-05-19T07:45:10.075Z,14.26
2023-05-19T07:47:57.054Z,14.39
2023-05-19T07:50:30.232Z,14.53
2023-05-19T07:53:17.007Z,14.65
2023-05-19T07:55:50.485Z,14.74
2023-05-19T07:58:36.984Z,14.85
2023-05-19T08:01:11.134Z,14.95
2023-05-19T08:03:58.350Z,15.02
2023-05-19T08:06:32.102Z,15.08
2023-05-19T08:09:18.959Z,15.14
2023-05-19T08:11:53.129Z,15.23
2023-05-19T08:14:41.931Z,15.32
2023-05-19T08:17:15.046Z,15.36
2023-05-19T08:20:01.942Z,15.40
2023-05-19T08:22:36.057Z,15.43
2023-05-19T08:25:22.958Z,15.46
2023-05-19T08:27:56.079Z,15.46
2023-05-19T08:30:42.955Z,15.44
2023-05-19T08:33:17.687Z,15.36
2023-05-19T08:36:04.888Z,15.34
2023-05-19T08:38:38.026Z,15.38
2023-05-19T08:41:24.939Z,15.39
2023-05-19T08:43:58.996Z,15.45
2023-05-19T08:46:45.919Z,15.52
2023-05-19T08:49:22.205Z,15.60
2023-05-19T08:52:21.864Z,15.63
2023-05-19T08:55:11.226Z,15.64
2023-05-19T08:57:58.854Z,15.63
2023-05-19T09:00:33.405Z,15.65
2023-05-19T09:03:29.126Z,15.65
2023-05-19T09:06:24.890Z,15.66
2023-05-19T09:09:12.830Z,15.75
2023-05-19T09:11:46.917Z,15.85
2023-05-19T09:14:33.804Z,15.90
2023-05-19T09:17:08.216Z,15.87
2023-05-19T09:19:55.805Z,15.84
2023-05-19T09:22:36.762Z,15.89
2023-05-19T09:25:28.736Z,15.96
2023-05-19T09:28:08.893Z,15.99
2023-05-19T09:30:48.742Z,16.05
2023-05-19T09:33:29.556Z,16.04
2023-05-19T09:36:12.748Z,16.03
2023-05-19T09:38:52.896Z,15.97
2023-05-19T09:41:32.775Z,15.95
2023-05-19T09:44:12.925Z,16.04
2023-05-19T09:46:59.749Z,16.12
2023-05-19T09:49:40.076Z,16.18
2023-05-19T09:52:22.682Z,16.26
2023-05-19T09:55:05.348Z,16.40
2023-05-19T09:57:47.662Z,16.52
2023-05-19T10:00:30.381Z,16.56
2023-05-19T10:03:11.764Z,16.52
2023-05-19T10:06:07.603Z,16.41
2023-05-19T10:08:56.703Z,16.34
2023-05-19T10:11:29.753Z,16.39
2023-05-19T10:14:16.766Z,16.52
2023-05-19T10:16:53.054Z,16.60
2023-05-19T10:19:40.666Z,16.67
2023-05-19T10:22:14.803Z,16.76
2023-05-19T10:25:02.704Z,16.86
2023-05-19T10:27:54.152Z,16.94
2023-05-19T10:30:42.644Z,16.97
2023-05-19T10:33:59.603Z,16.94
2023-05-19T10:36:56.612Z,16.92
2023-05-19T10:39:39.691Z,16.93
2023-05-19T10:43:10.603Z,17.09
2023-05-19T10:46:00.808Z,17.24
2023-05-19T10:48:50.660Z,17.28
2023-05-19T10:51:24.720Z,17.33
2023-05-19T10:54:19.695Z,17.48
2023-05-19T10:56:53.641Z,17.60
2023-05-19T10:59:44.586Z,17.60
2023-05-19T11:02:56.006Z,17.57
2023-05-19T11:05:43.493Z,17.68
2023-05-19T11:08:18.832Z,17.75
2023-05-19T11:11:20.511Z,17.85
2023-05-19T11:13:57.645Z,17.87
2023-05-19T11:16:48.964Z,17.83
2023-05-19T11:19:36.653Z,17.86
2023-05-19T11:22:23.625Z,17.86
2023-05-19T11:24:57.705Z,17.89
2023-05-19T11:27:46.513Z,18.00
2023-05-19T11:30:26.645Z,18.06
2023-05-19T11:33:07.516Z,18.17
2023-05-19T11:35:49.749Z,18.32
2023-05-19T11:38:30.547Z,18.47
2023-05-19T11:41:12.220Z,18.57
2023-05-19T11:43:54.461Z,18.68
2023-05-19T11:46:34.649Z,18.81
2023-05-19T11:49:14.453Z,18.98
2023-05-19T11:51:55.692Z,19.07
2023-05-19T11:54:46.434Z,19.16
2023-05-19T11:57:26.589Z,19.18
2023-05-19T12:00:09.369Z,19.09
2023-05-19T12:02:49.546Z,19.04
2023-05-19T12:05:34.938Z,19.15
2023-05-19T12:08:19.554Z,19.34
2023-05-19T12:11:00.404Z,19.45
2023-05-19T12:13:40.960Z,19.46
2023-05-19T12:16:21.419Z,19.56
2023-05-19T12:19:02.591Z,19.66
2023-05-19T12:21:42.650Z,19.85
2023-05-19T12:24:22.486Z,20.06
2023-05-19T12:27:19.379Z,20.18
2023-05-19T12:30:02.997Z,20.20
2023-05-19T12:32:43.369Z,20.21
2023-05-19T12:35:24.907Z,20.16
2023-05-19T12:38:10.365Z,20.09
2023-05-19T12:40:51.768Z,20.14
2023-05-19T12:43:32.314Z,20.19
2023-05-19T12:46:19.498Z,20.06
2023-05-19T12:48:59.268Z,19.92
2023-05-19T12:51:39.942Z,19.72
2023-05-19T12:54:20.340Z,19.68
2023-05-19T12:57:04.408Z,19.73
2023-05-19T12:59:45.293Z,19.75
2023-05-19T13:02:26.946Z,19.72
2023-05-19T13:05:07.278Z,19.70
2023-05-19T13:07:47.888Z,19.81
2023-05-19T13:10:28.263Z,20.01
2023-05-19T13:13:10.876Z,20.14
2023-05-19T13:15:52.218Z,20.17
2023-05-19T13:18:32.738Z,20.19
2023-05-19T13:21:13.229Z,20.21
2023-05-19T13:23:53.633Z,20.21
2023-05-19T13:26:34.296Z,20.19
2023-05-19T13:29:14.364Z,20.21
2023-05-19T13:31:55.229Z,20.18
2023-05-19T13:34:36.293Z,20.02
2023-05-19T13:37:16.166Z,19.92
2023-05-19T13:39:58.561Z,19.83
2023-05-19T13:42:39.207Z,19.64
2023-05-19T13:45:19.360Z,19.50
2023-05-19T13:48:00.265Z,19.45
2023-05-19T13:50:40.278Z,19.24
2023-05-19T13:53:20.141Z,19.04
2023-05-19T13:56:00.752Z,18.94
2023-05-19T13:58:41.155Z,18.89
2023-05-19T14:01:22.228Z,18.83
2023-05-19T14:04:02.446Z,18.79
2023-05-19T14:06:43.280Z,18.73
2023-05-19T14:09:23.158Z,18.74
2023-05-19T14:12:05.348Z,18.76
2023-05-19T14:14:45.184Z,18.72
2023-05-19T14:17:25.861Z,18.55
2023-05-19T14:20:07.073Z,18.33
2023-05-19T14:22:48.186Z,18.11
2023-05-19T14:25:28.087Z,18.01
2023-05-19T14:28:08.208Z,17.89
2023-05-19T14:30:48.337Z,17.70
2023-05-19T14:33:32.772Z,17.59
2023-05-19T14:36:16.072Z,17.47
2023-05-19T14:38:57.599Z,17.42
2023-05-19T14:41:38.054Z,17.41
2023-05-19T14:44:18.166Z,17.41
2023-05-19T14:46:57.998Z,17.36
2023-05-19T14:49:39.122Z,17.18
2023-05-19T14:52:19.016Z,16.89
2023-05-19T14:54:59.125Z,16.74
2023-05-19T14:57:39.019Z,16.68
2023-05-19T15:00:20.659Z,16.59
2023-05-19T15:03:02.022Z,16.52
2023-05-19T15:05:55.937Z,16.49
2023-05-19T15:08:43.995Z,16.39
2023-05-19T15:11:17.050Z,16.27
2023-05-19T15:14:03.956Z,16.22
2023-05-19T15:16:44.107Z,16.17
2023-05-19T15:19:24.112Z,16.10
2023-05-19T15:22:04.186Z,16.00
2023-05-19T15:24:45.045Z,15.92
2023-05-19T15:27:25.092Z,15.83
2023-05-19T15:30:04.946Z,15.78
2023-05-19T15:32:45.076Z,15.71
2023-05-19T15:35:25.861Z,15.61
2023-05-19T15:38:07.177Z,15.49
2023-05-19T15:40:48.943Z,15.43
2023-05-19T15:43:29.046Z,15.37
2023-05-19T15:46:11.951Z,15.30
2023-05-19T15:48:53.004Z,15.26
2023-05-19T15:51:32.904Z,15.24
2023-05-19T15:54:12.978Z,15.17
2023-05-19T15:56:52.900Z,15.11
2023-05-19T15:59:32.989Z,15.01
2023-05-19T16:02:13.076Z,14.94
2023-05-19T16:05:06.804Z,14.90
2023-05-19T16:07:53.821Z,14.86
2023-05-19T16:10:26.960Z,14.81
2023-05-19T16:13:14.449Z,14.74
2023-05-19T16:15:48.021Z,14.67
2023-05-19T16:18:37.908Z,14.61
2023-05-19T16:21:18.063Z,14.56
2023-05-19T16:23:58.844Z,14.47
2023-05-19T16:26:38.960Z,14.40
2023-05-19T16:29:18.813Z,14.34
